createdAt,value
2023-05-25T00:01:03.611Z,94817.41
2023-05-25T00:03:32.405Z,94810.19
2023-05-25T00:06:03.276Z,94817.41
2023-05-25T00:08:30.318Z,94811.34
2023-05-25T00:10:57.249Z,94820.88
2023-05-25T00:13:24.617Z,94811.66
2023-05-25T00:15:51.622Z,94820.22
2023-05-25T00:18:19.004Z,94822.03
2023-05-25T00:20:47.834Z,94815.44
2023-05-25T00:23:15.023Z,94811.50
2023-05-25T00:25:42.230Z,94806.25
2023-05-25T00:28:11.091Z,94799.81
2023-05-25T00:30:38.151Z,94798.84
2023-05-25T00:33:05.437Z,94795.41
2023-05-25T00:35:32.385Z,94796.06
2023-05-25T00:37:59.320Z,94794.09
2023-05-25T00:40:26.265Z,94796.72
2023-05-25T00:42:53.685Z,94794.09
2023-05-25T00:45:20.634Z,94783.38
2023-05-25T00:47:52.078Z,94796.22
2023-05-25T00:50:40.842Z,94798.19
2023-05-25T00:53:09.925Z,94800.66
2023-05-25T00:55:46.442Z,94796.56
2023-05-25T00:58:17.395Z,94793.91
2023-05-25T01:00:46.234Z,94794.75
2023-05-25T01:03:17.965Z,94798.66
2023-05-25T01:05:48.614Z,94795.03
2023-05-25T01:08:21.462Z,94796.06
2023-05-25T01:10:50.352Z,94797.19
2023-05-25T01:13:20.298Z,94787.81
2023-05-25T01:15:48.649Z,94787.81
2023-05-25T01:18:18.154Z,94784.19
2023-05-25T01:20:54.601Z,94793.75
2023-05-25T01:23:30.879Z,94786.81
2023-05-25T01:26:02.831Z,94784.97
2023-05-25T01:28:36.190Z,94787.81
2023-05-25T01:31:03.524Z,94786.00
2023-05-25T01:33:32.691Z,94797.34
2023-05-25T01:36:01.015Z,94790.75
2023-05-25T01:38:27.930Z,94787.63
2023-05-25T01:40:54.863Z,94792.09
2023-05-25T01:43:22.805Z,94790.47
2023-05-25T01:45:50.238Z,94788.78
2023-05-25T01:48:21.900Z,94793.56
2023-05-25T01:50:59.891Z,94795.22
2023-05-25T01:53:55.022Z,94793.91
2023-05-25T01:56:23.443Z,94793.41
2023-05-25T01:58:51.591Z,94787.81
2023-05-25T02:01:20.438Z,94789.97
2023-05-25T02:03:50.888Z,94803.41
2023-05-25T02:06:18.007Z,94784.53
2023-05-25T02:08:45.987Z,94780.78
2023-05-25T02:11:16.688Z,94795.03
2023-05-25T02:13:43.598Z,94794.06
2023-05-25T02:16:10.716Z,94786.34
2023-05-25T02:18:37.674Z,94792.75
2023-05-25T02:21:04.677Z,94783.72
2023-05-25T02:23:31.610Z,94786.84
2023-05-25T02:25:58.530Z,94784.53
2023-05-25T02:28:25.392Z,94771.38
2023-05-25T02:30:52.340Z,94788.50
2023-05-25T02:33:19.204Z,94775.19
2023-05-25T02:35:46.584Z,94785.38
2023-05-25T02:38:14.152Z,94783.56
2023-05-25T02:40:41.059Z,94785.22
2023-05-25T02:43:07.935Z,94788.50
2023-05-25T02:45:35.038Z,94776.66
2023-05-25T02:48:01.956Z,94779.97
2023-05-25T02:50:28.904Z,94784.22
2023-05-25T02:52:55.873Z,94786.66
2023-05-25T02:55:23.229Z,94780.91
2023-05-25T02:57:50.138Z,94782.72
2023-05-25T03:00:17.431Z,94780.53
2023-05-25T03:02:47.041Z,94787.97
2023-05-25T03:05:13.947Z,94790.09
2023-05-25T03:07:41.371Z,94790.09
2023-05-25T03:10:08.742Z,94785.50
2023-05-25T03:12:35.651Z,94784.88
2023-05-25T03:15:02.528Z,94778.97
2023-05-25T03:17:29.412Z,94787.31
2023-05-25T03:19:56.391Z,94786.69
2023-05-25T03:22:23.274Z,94795.88
2023-05-25T03:24:50.479Z,94795.06
2023-05-25T03:27:17.371Z,94785.88
2023-05-25T03:29:44.230Z,94779.59
2023-05-25T03:32:11.139Z,94787.81
2023-05-25T03:34:38.077Z,94798.63
2023-05-25T03:37:05.305Z,94793.06
2023-05-25T03:39:32.221Z,94793.38
2023-05-25T03:41:59.152Z,94794.03
2023-05-25T03:44:26.020Z,94791.91
2023-05-25T03:46:52.937Z,94793.06
2023-05-25T03:49:19.831Z,94784.53
2023-05-25T03:51:46.730Z,94783.69
2023-05-25T03:54:13.921Z,94796.81
2023-05-25T03:56:41.003Z,94792.41
2023-05-25T03:59:07.973Z,94798.28
2023-05-25T04:01:38.286Z,94786.44
2023-05-25T04:04:06.396Z,94783.66
2023-05-25T04:06:34.207Z,94787.13
2023-05-25T04:09:01.544Z,94786.13
2023-05-25T04:11:29.417Z,94785.31
2023-05-25T04:13:56.474Z,94796.50
2023-05-25T04:16:23.769Z,94793.66
2023-05-25T04:18:50.712Z,94797.09
2023-05-25T04:21:17.594Z,94780.00
2023-05-25T04:23:44.480Z,94801.22
2023-05-25T04:26:11.639Z,94806.78
2023-05-25T04:28:41.123Z,94807.78
2023-05-25T04:31:09.421Z,94804.50
2023-05-25T04:33:38.956Z,94810.56
2023-05-25T04:36:06.917Z,94810.38
2023-05-25T04:38:33.767Z,94810.72
2023-05-25T04:41:02.412Z,94804.63
2023-05-25T04:43:32.482Z,94806.41
2023-05-25T04:46:00.311Z,94808.22
2023-05-25T04:48:32.695Z,94812.66
2023-05-25T04:51:03.270Z,94815.63
2023-05-25T04:53:30.418Z,94815.97
2023-05-25T04:55:57.904Z,94822.53
2023-05-25T04:58:25.273Z,94826.63
2023-05-25T05:00:52.778Z,94827.50
2023-05-25T05:03:19.956Z,94824.50
2023-05-25T05:05:46.953Z,94827.00
2023-05-25T05:08:14.130Z,94820.59
2023-05-25T05:10:41.052Z,94823.59
2023-05-25T05:13:07.939Z,94827.84
2023-05-25T05:15:34.796Z,94822.78
2023-05-25T05:18:01.679Z,94826.75
2023-05-25T05:20:28.610Z,94823.47
2023-05-25T05:22:55.574Z,94825.75
2023-05-25T05:25:22.420Z,94827.09
2023-05-25T05:27:49.291Z,94827.56
2023-05-25T05:30:16.408Z,94832.72
2023-05-25T05:32:45.250Z,94832.91
2023-05-25T05:35:13.406Z,94828.75
2023-05-25T05:37:40.371Z,94825.66
2023-05-25T05:40:08.105Z,94830.56
2023-05-25T05:42:35.083Z,94831.41
2023-05-25T05:45:01.938Z,94838.28
2023-05-25T05:47:28.868Z,94837.00
2023-05-25T05:49:55.777Z,94846.66
2023-05-25T05:52:23.137Z,94849.75
2023-05-25T05:54:49.992Z,94844.47
2023-05-25T05:57:16.847Z,94856.47
2023-05-25T05:59:43.788Z,94849.72
2023-05-25T06:02:10.722Z,94848.19
2023-05-25T06:04:38.638Z,94849.81
2023-05-25T06:07:05.913Z,94854.91
2023-05-25T06:09:32.798Z,94851.09
2023-05-25T06:11:59.691Z,94855.31
2023-05-25T06:14:28.552Z,94850.06
2023-05-25T06:16:55.909Z,94857.63
2023-05-25T06:19:22.840Z,94854.16
2023-05-25T06:21:49.718Z,94853.31
2023-05-25T06:24:16.731Z,94849.34
2023-05-25T06:26:43.593Z,94853.09
2023-05-25T06:29:10.467Z,94855.84
2023-05-25T06:31:37.371Z,94861.13
2023-05-25T06:34:04.235Z,94861.22
2023-05-25T06:36:32.364Z,94859.25
2023-05-25T06:38:59.276Z,94874.50
2023-05-25T06:41:26.396Z,94871.03
2023-05-25T06:43:53.397Z,94870.22
2023-05-25T06:46:20.323Z,94869.53
2023-05-25T06:48:47.648Z,94869.69
2023-05-25T06:51:14.769Z,94876.31
2023-05-25T06:53:41.726Z,94879.13
2023-05-25T06:56:08.641Z,94886.69
2023-05-25T06:58:35.584Z,94895.25
2023-05-25T07:01:03.106Z,94894.38
2023-05-25T07:03:30.438Z,94894.94
2023-05-25T07:05:58.380Z,94899.50
2023-05-25T07:08:25.262Z,94896.66
2023-05-25T07:10:52.119Z,94895.44
2023-05-25T07:13:19.030Z,94893.56
2023-05-25T07:15:46.248Z,94898.97
2023-05-25T07:18:13.552Z,94892.28
2023-05-25T07:20:44.478Z,94897.56
2023-05-25T07:23:12.347Z,94894.56
2023-05-25T07:25:40.243Z,94903.13
2023-05-25T07:28:08.066Z,94895.75
2023-05-25T07:30:35.199Z,94898.53
2023-05-25T07:33:02.303Z,94898.22
2023-05-25T07:35:29.350Z,94907.59
2023-05-25T07:37:59.919Z,94901.81
2023-05-25T07:40:27.730Z,94911.56
2023-05-25T07:42:54.942Z,94921.72
2023-05-25T07:45:22.130Z,94927.97
2023-05-25T07:47:49.371Z,94932.41
2023-05-25T07:50:16.495Z,94918.84
2023-05-25T07:52:43.431Z,94931.81
2023-05-25T07:55:10.734Z,94927.06
2023-05-25T07:57:37.742Z,94933.75
2023-05-25T08:00:08.503Z,94926.47
2023-05-25T08:02:35.479Z,94929.00
2023-05-25T08:05:06.067Z,94937.84
2023-05-25T08:07:34.341Z,94938.97
2023-05-25T08:10:02.051Z,94941.91
2023-05-25T08:12:47.163Z,94939.22
2023-05-25T08:15:16.826Z,94939.94
2023-05-25T08:17:44.012Z,94942.91
2023-05-25T08:20:12.090Z,94930.41
2023-05-25T08:22:39.025Z,94944.06
2023-05-25T08:25:07.080Z,94939.41
2023-05-25T08:27:36.083Z,94928.47
2023-05-25T08:30:06.269Z,94934.69
2023-05-25T08:32:33.356Z,94934.81
2023-05-25T08:35:02.194Z,94931.69
2023-05-25T08:37:29.594Z,94930.25
2023-05-25T08:39:56.664Z,94937.38
2023-05-25T08:42:24.124Z,94935.19
2023-05-25T08:44:51.064Z,94934.63
2023-05-25T08:47:19.735Z,94945.97
2023-05-25T08:49:46.876Z,94945.97
2023-05-25T08:52:22.788Z,94938.56
2023-05-25T08:54:51.835Z,94948.28
2023-05-25T08:57:46.670Z,94943.00
2023-05-25T09:00:15.938Z,94931.28
2023-05-25T09:02:56.474Z,94936.91
2023-05-25T09:05:24.376Z,94948.53
2023-05-25T09:07:51.853Z,94942.91
2023-05-25T09:10:19.142Z,94952.69
2023-05-25T09:12:46.885Z,94947.78
2023-05-25T09:15:13.797Z,94940.22
2023-05-25T09:17:41.734Z,94950.91
2023-05-25T09:20:14.108Z,94960.78
2023-05-25T09:22:42.509Z,94964.41
2023-05-25T09:25:11.738Z,94967.94
2023-05-25T09:27:38.856Z,94965.47
2023-05-25T09:30:06.892Z,94970.69
2023-05-25T09:32:33.954Z,94967.22
2023-05-25T09:35:15.215Z,94975.47
2023-05-25T09:37:44.242Z,94971.50
2023-05-25T09:40:11.790Z,94975.72
2023-05-25T09:42:39.356Z,94979.06
2023-05-25T09:45:07.177Z,94981.13
2023-05-25T09:47:36.888Z,94975.97
2023-05-25T09:50:04.516Z,94988.00
2023-05-25T09:52:31.760Z,94972.09
2023-05-25T09:54:58.648Z,94976.59
2023-05-25T09:57:27.408Z,94979.44
2023-05-25T09:59:54.370Z,94989.97
2023-05-25T10:02:21.612Z,94985.50
2023-05-25T10:04:48.828Z,94986.25
2023-05-25T10:07:16.419Z,94990.75
2023-05-25T10:09:46.774Z,94974.47
2023-05-25T10:12:20.521Z,94974.13
2023-05-25T10:14:51.490Z,94995.50
2023-05-25T10:17:23.906Z,94984.13
2023-05-25T10:20:01.192Z,94991.16
2023-05-25T10:23:01.472Z,94981.75
2023-05-25T10:25:34.958Z,95001.22
2023-05-25T10:28:28.264Z,94995.06
2023-05-25T10:30:58.058Z,95001.44
2023-05-25T10:33:25.267Z,95003.44
2023-05-25T10:36:03.056Z,95011.00
2023-05-25T10:38:39.963Z,95016.16
2023-05-25T10:41:09.791Z,95005.06
2023-05-25T10:43:41.478Z,95014.13
2023-05-25T10:46:09.132Z,95012.91
2023-05-25T10:48:40.288Z,95001.47
2023-05-25T10:51:09.357Z,95008.41
2023-05-25T10:53:38.657Z,95002.28
2023-05-25T10:56:10.853Z,95012.31
2023-05-25T10:58:46.709Z,95012.53
2023-05-25T11:01:16.256Z,94997.97
2023-05-25T11:03:58.465Z,95005.53
2023-05-25T11:06:37.931Z,95012.91
2023-05-25T11:09:06.749Z,94999.38
2023-05-25T11:11:42.328Z,95015.50
2023-05-25T11:14:32.040Z,95005.25
2023-05-25T11:17:19.324Z,95002.13
2023-05-25T11:19:53.286Z,95013.88
2023-05-25T11:22:30.996Z,94996.81
2023-05-25T11:25:03.167Z,95016.16
2023-05-25T11:27:32.298Z,95019.84
2023-05-25T11:30:00.508Z,95000.59
2023-05-25T11:32:28.563Z,95014.09
2023-05-25T11:34:57.639Z,95012.50
2023-05-25T11:37:29.097Z,95002.25
2023-05-25T11:39:56.225Z,94997.56
2023-05-25T11:42:25.002Z,94999.75
2023-05-25T11:44:52.200Z,94998.16
2023-05-25T11:47:25.358Z,94991.72
2023-05-25T11:49:55.390Z,94998.00
2023-05-25T11:52:23.165Z,95004.50
2023-05-25T11:54:50.088Z,95006.91
2023-05-25T11:57:25.152Z,95001.13
2023-05-25T12:00:02.160Z,94993.84
2023-05-25T12:02:39.103Z,94994.16
2023-05-25T12:05:08.738Z,94982.41
2023-05-25T12:07:44.417Z,95001.56
2023-05-25T12:10:14.239Z,95010.00
2023-05-25T12:13:02.532Z,95020.16
2023-05-25T12:15:30.058Z,95022.34
2023-05-25T12:17:57.192Z,95014.00
2023-05-25T12:20:24.540Z,95012.28
2023-05-25T12:22:51.525Z,94998.00
2023-05-25T12:25:22.707Z,95014.84
2023-05-25T12:27:49.983Z,95015.94
2023-05-25T12:30:17.034Z,95009.59
2023-05-25T12:33:04.491Z,95015.75
2023-05-25T12:35:48.477Z,95013.66
2023-05-25T12:38:18.782Z,94998.91
2023-05-25T12:40:46.187Z,95016.44
2023-05-25T12:43:14.491Z,95004.94
2023-05-25T12:45:44.790Z,95016.53
2023-05-25T12:48:12.242Z,95009.53
2023-05-25T12:50:39.225Z,95004.09
2023-05-25T12:53:06.328Z,95009.66
2023-05-25T12:55:35.991Z,95009.66
2023-05-25T12:58:07.694Z,95013.84
2023-05-25T13:00:39.611Z,95023.84
2023-05-25T13:03:08.067Z,95037.28
2023-05-25T13:05:37.775Z,95032.34
2023-05-25T13:08:07.154Z,95023.91
2023-05-25T13:10:37.353Z,95026.34
2023-05-25T13:13:05.009Z,95026.25
2023-05-25T13:15:32.106Z,95013.72
2023-05-25T13:17:59.136Z,95013.16
2023-05-25T13:20:27.468Z,95021.53
2023-05-25T13:22:57.543Z,95020.72
2023-05-25T13:25:27.437Z,94999.59
2023-05-25T13:27:55.237Z,95007.84
2023-05-25T13:30:22.447Z,95001.56
2023-05-25T13:32:51.682Z,95015.06
2023-05-25T13:35:23.620Z,95015.28
2023-05-25T13:37:51.847Z,95020.25
2023-05-25T13:40:19.236Z,95015.06
2023-05-25T13:42:46.231Z,95013.47
2023-05-25T13:45:13.899Z,95017.09
2023-05-25T13:47:43.740Z,95024.97
2023-05-25T13:50:11.552Z,95017.25
2023-05-25T13:52:38.447Z,95017.41
2023-05-25T13:55:05.990Z,95016.56
2023-05-25T13:57:32.851Z,95009.25
2023-05-25T13:59:59.690Z,95000.97
2023-05-25T14:02:26.841Z,94991.72
2023-05-25T14:04:53.874Z,94989.56
2023-05-25T14:07:24.075Z,94994.81
2023-05-25T14:09:50.926Z,95007.25
2023-05-25T14:12:17.830Z,94996.84
2023-05-25T14:14:44.671Z,94994.06
2023-05-25T14:17:11.507Z,95001.06
2023-05-25T14:19:38.383Z,94991.53
2023-05-25T14:22:13.295Z,94984.19
2023-05-25T14:24:42.024Z,94995.94
2023-05-25T14:27:09.379Z,95005.19
2023-05-25T14:29:37.140Z,95003.66
2023-05-25T14:32:04.356Z,94994.34
2023-05-25T14:34:31.224Z,94989.00
2023-05-25T14:36:58.084Z,94992.59
2023-05-25T14:39:25.053Z,94983.03
2023-05-25T14:41:52.169Z,95001.19
2023-05-25T14:44:19.029Z,94994.53
2023-05-25T14:46:46.480Z,94988.25
2023-05-25T14:49:13.973Z,95006.09
2023-05-25T14:51:40.927Z,94996.66
2023-05-25T14:54:08.123Z,95000.41
2023-05-25T14:56:35.268Z,94988.72
2023-05-25T14:59:02.191Z,94994.56
2023-05-25T15:01:29.764Z,95003.22
2023-05-25T15:03:57.127Z,94999.03
2023-05-25T15:06:24.169Z,95003.28
2023-05-25T15:08:51.355Z,95000.81
2023-05-25T15:11:18.757Z,94991.34
2023-05-25T15:13:46.138Z,95006.28
2023-05-25T15:16:14.637Z,94996.44
2023-05-25T15:18:41.750Z,94992.09
2023-05-25T15:21:08.804Z,94998.31
2023-05-25T15:23:36.096Z,94994.38
2023-05-25T15:26:07.904Z,94991.00
2023-05-25T15:28:35.113Z,94984.16
2023-05-25T15:31:03.301Z,94996.03
2023-05-25T15:33:49.589Z,94988.09
2023-05-25T15:36:20.066Z,95001.19
2023-05-25T15:38:49.571Z,94996.38
2023-05-25T15:41:17.656Z,94995.94
2023-05-25T15:43:58.105Z,95001.91
2023-05-25T15:46:25.391Z,95005.66
2023-05-25T15:48:52.287Z,94990.81
2023-05-25T15:51:19.199Z,94989.22
2023-05-25T15:53:47.366Z,94987.00
2023-05-25T15:56:14.245Z,94998.81
2023-05-25T15:58:41.131Z,94995.47
2023-05-25T16:01:08.091Z,94995.41
2023-05-25T16:03:35.036Z,94998.97
2023-05-25T16:06:02.513Z,94991.03
2023-05-25T16:08:29.405Z,94996.13
2023-05-25T16:10:56.306Z,94992.44
2023-05-25T16:13:23.173Z,95005.69
2023-05-25T16:15:50.146Z,95004.88
2023-05-25T16:18:17.023Z,95007.09
2023-05-25T16:20:44.291Z,94998.56
2023-05-25T16:23:11.342Z,95006.69
2023-05-25T16:25:38.326Z,95013.53
2023-05-25T16:28:05.247Z,95011.69
2023-05-25T16:30:32.143Z,95008.66
2023-05-25T16:32:59.054Z,95002.16
2023-05-25T16:35:25.953Z,95004.22
2023-05-25T16:37:52.844Z,95003.13
2023-05-25T16:40:19.670Z,95007.44
2023-05-25T16:42:46.541Z,95008.16
2023-05-25T16:45:13.426Z,95000.34
2023-05-25T16:47:40.297Z,95006.03
2023-05-25T16:50:08.265Z,95000.84
2023-05-25T16:52:35.852Z,94999.91
2023-05-25T16:55:02.770Z,94997.94
2023-05-25T16:57:29.719Z,94990.63
2023-05-25T16:59:56.571Z,94995.41
2023-05-25T17:02:23.526Z,94992.16
2023-05-25T17:04:53.258Z,94995.66
2023-05-25T17:07:20.157Z,94994.78
2023-05-25T17:09:47.035Z,95001.41
2023-05-25T17:12:13.932Z,94994.19
2023-05-25T17:14:40.806Z,95001.75
2023-05-25T17:17:07.652Z,95009.00
2023-05-25T17:19:34.924Z,95010.31
2023-05-25T17:22:01.769Z,95009.50
2023-05-25T17:24:28.614Z,95013.22
2023-05-25T17:26:55.593Z,95004.03
2023-05-25T17:29:22.741Z,95014.41
2023-05-25T17:31:50.291Z,95016.38
2023-05-25T17:34:17.379Z,95010.19
2023-05-25T17:36:44.294Z,95009.97
2023-05-25T17:39:11.231Z,95023.25
2023-05-25T17:41:38.118Z,95013.81
2023-05-25T17:44:05.041Z,95020.56
2023-05-25T17:46:32.119Z,95027.00
2023-05-25T17:48:59.036Z,95016.00
2023-05-25T17:51:25.950Z,95015.03
2023-05-25T17:53:52.904Z,95021.69
2023-05-25T17:56:19.758Z,95020.84
2023-05-25T17:58:47.969Z,95024.16
2023-05-25T18:01:16.134Z,95032.16
2023-05-25T18:03:43.273Z,95021.63
2023-05-25T18:06:10.404Z,95037.72
2023-05-25T18:08:37.331Z,95031.03
2023-05-25T18:11:04.349Z,95026.81
2023-05-25T18:13:32.069Z,95040.91
2023-05-25T18:16:00.175Z,95040.41
2023-05-25T18:18:27.005Z,95039.06
2023-05-25T18:20:53.903Z,95043.22
2023-05-25T18:23:22.410Z,95049.00
2023-05-25T18:25:49.367Z,95039.09
2023-05-25T18:28:16.390Z,95048.81
2023-05-25T18:30:43.379Z,95056.94
2023-05-25T18:33:10.885Z,95046.59
2023-05-25T18:35:38.375Z,95043.94
2023-05-25T18:38:06.857Z,95049.34
2023-05-25T18:40:33.874Z,95051.06
2023-05-25T18:43:00.813Z,95054.50
2023-05-25T18:45:27.742Z,95048.81
2023-05-25T18:47:54.741Z,95049.34
2023-05-25T18:50:21.926Z,95054.13
2023-05-25T18:52:51.386Z,95052.13
2023-05-25T18:55:19.293Z,95055.25
2023-05-25T18:57:47.008Z,95059.00
2023-05-25T19:00:14.809Z,95049.25
2023-05-25T19:02:41.900Z,95055.84
2023-05-25T19:05:11.948Z,95051.78
2023-05-25T19:07:58.470Z,95051.25
2023-05-25T19:10:26.558Z,95055.41
2023-05-25T19:12:53.476Z,95065.94
2023-05-25T19:15:20.445Z,95043.03
2023-05-25T19:17:47.433Z,95054.97
2023-05-25T19:20:14.574Z,95061.78
2023-05-25T19:22:42.089Z,95064.03
2023-05-25T19:25:09.317Z,95061.00
2023-05-25T19:27:36.649Z,95065.16
2023-05-25T19:30:05.787Z,95079.06
2023-05-25T19:32:32.817Z,95072.34
2023-05-25T19:34:59.801Z,95073.56
2023-05-25T19:37:26.855Z,95073.94
2023-05-25T19:39:53.971Z,95074.78
2023-05-25T19:42:20.881Z,95074.75
2023-05-25T19:44:47.734Z,95080.66
2023-05-25T19:47:14.734Z,95076.13
2023-05-25T19:49:41.710Z,95091.44
2023-05-25T19:52:08.683Z,95086.13
2023-05-25T19:54:35.674Z,95093.47
2023-05-25T19:57:03.083Z,95097.16
2023-05-25T19:59:31.548Z,95103.72
2023-05-25T20:01:58.735Z,95103.13
2023-05-25T20:04:25.979Z,95111.84
2023-05-25T20:06:54.363Z,95111.84
2023-05-25T20:09:29.996Z,95114.69
2023-05-25T20:12:00.236Z,95130.25
2023-05-25T20:14:27.362Z,95129.16
2023-05-25T20:16:56.940Z,95126.44
2023-05-25T20:19:23.797Z,95126.19
2023-05-25T20:21:51.292Z,95128.84
2023-05-25T20:24:18.404Z,95115.44
2023-05-25T20:26:45.371Z,95119.47
2023-05-25T20:29:12.305Z,95127.38
2023-05-25T20:31:39.335Z,95118.94
2023-05-25T20:34:06.579Z,95118.63
2023-05-25T20:36:33.445Z,95118.59
2023-05-25T20:39:00.605Z,95123.78
2023-05-25T20:41:27.578Z,95128.59
2023-05-25T20:43:54.511Z,95126.28
2023-05-25T20:46:21.560Z,95119.66
2023-05-25T20:48:48.523Z,95122.53
2023-05-25T20:51:15.492Z,95124.31
2023-05-25T20:53:42.360Z,95126.25
2023-05-25T20:56:09.273Z,95119.78
2023-05-25T20:58:37.676Z,95127.00
2023-05-25T21:01:04.742Z,95127.44
2023-05-25T21:03:31.862Z,95112.91
2023-05-25T21:05:58.822Z,95122.78
2023-05-25T21:08:25.783Z,95127.06
2023-05-25T21:10:52.722Z,95118.41
2023-05-25T21:13:19.654Z,95123.88
2023-05-25T21:15:46.822Z,95133.34
2023-05-25T21:18:13.896Z,95129.59
2023-05-25T21:20:40.860Z,95131.56
2023-05-25T21:23:07.912Z,95125.34
2023-05-25T21:25:34.839Z,95133.75
2023-05-25T21:28:01.707Z,95117.16
2023-05-25T21:30:28.648Z,95120.97
2023-05-25T21:32:55.735Z,95120.53
2023-05-25T21:35:22.717Z,95132.94
2023-05-25T21:37:49.655Z,95141.47
2023-05-25T21:40:16.651Z,95129.06
2023-05-25T21:42:43.521Z,95141.22
2023-05-25T21:45:10.592Z,95143.50
2023-05-25T21:47:37.479Z,95141.19
2023-05-25T21:50:04.854Z,95139.81
2023-05-25T21:52:31.748Z,95130.19
2023-05-25T21:54:58.729Z,95133.03
2023-05-25T21:57:25.726Z,95134.00
2023-05-25T21:59:52.626Z,95138.81
2023-05-25T22:02:20.772Z,95132.78
2023-05-25T22:04:47.674Z,95134.38
2023-05-25T22:07:14.583Z,95131.97
2023-05-25T22:09:41.449Z,95133.81
2023-05-25T22:12:10.510Z,95134.25
2023-05-25T22:14:37.358Z,95120.72
2023-05-25T22:17:04.552Z,95134.59
2023-05-25T22:19:31.511Z,95122.25
2023-05-25T22:21:58.604Z,95116.75
2023-05-25T22:24:25.565Z,95131.94
2023-05-25T22:26:52.839Z,95126.00
2023-05-25T22:29:19.720Z,95125.84
2023-05-25T22:31:46.602Z,95127.34
2023-05-25T22:34:13.561Z,95125.38
2023-05-25T22:36:40.457Z,95122.88
2023-05-25T22:39:07.320Z,95137.56
2023-05-25T22:41:34.175Z,95136.75
2023-05-25T22:44:01.046Z,95134.16
2023-05-25T22:46:27.922Z,95135.19
2023-05-25T22:48:54.776Z,95139.50
2023-05-25T22:51:22.570Z,95130.81
2023-05-25T22:53:49.671Z,95134.09
2023-05-25T22:56:16.567Z,95135.25
2023-05-25T22:58:43.438Z,95131.00
2023-05-25T23:01:10.310Z,95132.00
2023-05-25T23:03:37.328Z,95134.03
2023-05-25T23:06:04.265Z,95131.75
2023-05-25T23:08:31.380Z,95141.16
2023-05-25T23:10:58.237Z,95135.56
2023-05-25T23:13:25.162Z,95133.28
2023-05-25T23:15:52.043Z,95133.13
2023-05-25T23:18:18.909Z,95125.72
2023-05-25T23:20:45.802Z,95138.06
2023-05-25T23:23:13.141Z,95139.56
2023-05-25T23:25:40.065Z,95134.63
2023-05-25T23:28:06.965Z,95139.09
2023-05-25T23:30:33.830Z,95134.75
2023-05-25T23:33:00.989Z,95143.31
2023-05-25T23:35:28.641Z,95133.75
2023-05-25T23:37:57.755Z,95135.72
2023-05-25T23:40:24.776Z,95129.94
2023-05-25T23:42:52.203Z,95136.06
2023-05-25T23:45:19.636Z,95129.94
2023-05-25T23:47:46.780Z,95137.31
2023-05-25T23:50:13.739Z,95146.25
2023-05-25T23:52:41.605Z,95138.34
2023-05-25T23:55:08.783Z,95142.28
2023-05-25T23:57:36.796Z,95146.38
